sensor_id;sensor_type;location;lat;lon;timestamp;P1;durP1;ratioP1;P2;durP2;ratioP2
68479;SDS011;55469;48.934;12.050;2022-12-16T00:01:08;38.10;;;15.05;;
68479;SDS011;55469;48.934;12.050;2022-12-16T00:03:50;30.85;;;13.25;;
68479;SDS011;55469;48.934;12.050;2022-12-16T00:06:19;31.10;;;13.20;;
68479;SDS011;55469;48.934;12.050;2022-12-16T00:08:46;35.72;;;14.73;;
68479;SDS011;55469;48.934;12.050;2022-12-16T00:11:15;30.27;;;13.98;;
68479;SDS011;55469;48.934;12.050;2022-12-16T00:13:41;34.85;;;14.90;;
68479;SDS011;55469;48.934;12.050;2022-12-16T00:16:07;34.78;;;14.25;;
68479;SDS011;55469;48.934;12.050;2022-12-16T00:18:36;37.97;;;15.80;;
68479;SDS011;55469;48.934;12.050;2022-12-16T00:21:02;34.67;;;14.25;;
68479;SDS011;55469;48.934;12.050;2022-12-16T00:23:28;37.55;;;16.00;;
68479;SDS011;55469;48.934;12.050;2022-12-16T00:25:55;42.80;;;17.05;;
68479;SDS011;55469;48.934;12.050;2022-12-16T00:28:21;40.13;;;15.57;;
68479;SDS011;55469;48.934;12.050;2022-12-16T00:30:51;40.20;;;16.30;;
68479;SDS011;55469;48.934;12.050;2022-12-16T00:33:19;33.08;;;14.82;;
68479;SDS011;55469;48.934;12.050;2022-12-16T00:35:47;35.95;;;14.32;;
68479;SDS011;55469;48.934;12.050;2022-12-16T00:38:13;39.25;;;16.10;;
68479;SDS011;55469;48.934;12.050;2022-12-16T00:40:39;35.95;;;15.15;;
68479;SDS011;55469;48.934;12.050;2022-12-16T00:43:06;37.15;;;15.18;;
68479;SDS011;55469;48.934;12.050;2022-12-16T00:45:32;33.60;;;13.85;;
68479;SDS011;55469;48.934;12.050;2022-12-16T00:47:58;31.55;;;13.98;;
68479;SDS011;55469;48.934;12.050;2022-12-16T00:50:24;33.00;;;15.30;;
68479;SDS011;55469;48.934;12.050;2022-12-16T00:52:50;36.17;;;15.80;;
68479;SDS011;55469;48.934;12.050;2022-12-16T00:55:16;34.90;;;14.05;;
68479;SDS011;55469;48.934;12.050;2022-12-16T00:57:42;32.30;;;13.75;;
68479;SDS011;55469;48.934;12.050;2022-12-16T01:00:09;33.95;;;13.90;;
68479;SDS011;55469;48.934;12.050;2022-12-16T01:02:43;33.20;;;13.77;;
68479;SDS011;55469;48.934;12.050;2022-12-16T01:05:12;32.28;;;13.30;;
68479;SDS011;55469;48.934;12.050;2022-12-16T01:07:40;35.78;;;14.95;;
68479;SDS011;55469;48.934;12.050;2022-12-16T01:10:06;31.40;;;13.13;;
68479;SDS011;55469;48.934;12.050;2022-12-16T01:12:33;30.35;;;12.80;;
68479;SDS011;55469;48.934;12.050;2022-12-16T01:15:00;32.65;;;13.35;;
68479;SDS011;55469;48.934;12.050;2022-12-16T01:17:26;33.00;;;14.15;;
68479;SDS011;55469;48.934;12.050;2022-12-16T01:19:52;33.80;;;13.07;;
68479;SDS011;55469;48.934;12.050;2022-12-16T01:22:18;33.38;;;13.57;;
68479;SDS011;55469;48.934;12.050;2022-12-16T01:24:45;31.55;;;13.65;;
68479;SDS011;55469;48.934;12.050;2022-12-16T01:27:11;31.25;;;13.15;;
68479;SDS011;55469;48.934;12.050;2022-12-16T01:29:37;28.70;;;12.75;;
68479;SDS011;55469;48.934;12.050;2022-12-16T01:32:03;30.73;;;13.65;;
68479;SDS011;55469;48.934;12.050;2022-12-16T01:34:30;31.77;;;13.43;;
68479;SDS011;55469;48.934;12.050;2022-12-16T01:36:57;33.08;;;14.00;;
68479;SDS011;55469;48.934;12.050;2022-12-16T01:39:22;37.67;;;15.40;;
68479;SDS011;55469;48.934;12.050;2022-12-16T01:41:50;36.58;;;15.82;;
68479;SDS011;55469;48.934;12.050;2022-12-16T01:44:17;38.17;;;15.27;;
68479;SDS011;55469;48.934;12.050;2022-12-16T01:46:50;36.28;;;14.68;;
68479;SDS011;55469;48.934;12.050;2022-12-16T01:49:39;34.40;;;15.25;;
68479;SDS011;55469;48.934;12.050;2022-12-16T01:52:11;37.88;;;15.32;;
68479;SDS011;55469;48.934;12.050;2022-12-16T01:54:48;36.70;;;16.63;;
68479;SDS011;55469;48.934;12.050;2022-12-16T01:57:26;37.00;;;15.15;;
68479;SDS011;55469;48.934;12.050;2022-12-16T01:59:58;33.92;;;14.80;;
68479;SDS011;55469;48.934;12.050;2022-12-16T02:02:25;39.08;;;16.02;;
68479;SDS011;55469;48.934;12.050;2022-12-16T02:04:51;39.00;;;15.57;;
68479;SDS011;55469;48.934;12.050;2022-12-16T02:07:37;40.50;;;15.55;;
68479;SDS011;55469;48.934;12.050;2022-12-16T02:10:03;37.13;;;15.57;;
68479;SDS011;55469;48.934;12.050;2022-12-16T02:21:24;43.55;;;16.80;;
68479;SDS011;55469;48.934;12.050;2022-12-16T02:27:29;41.80;;;17.60;;
68479;SDS011;55469;48.934;12.050;2022-12-16T02:33:28;41.45;;;15.73;;
68479;SDS011;55469;48.934;12.050;2022-12-16T02:39:18;44.50;;;17.75;;
68479;SDS011;55469;48.934;12.050;2022-12-16T02:44:52;38.58;;;15.82;;
68479;SDS011;55469;48.934;12.050;2022-12-16T02:47:36;42.08;;;16.38;;
68479;SDS011;55469;48.934;12.050;2022-12-16T02:50:04;39.92;;;16.27;;
68479;SDS011;55469;48.934;12.050;2022-12-16T02:53:00;38.95;;;16.15;;
68479;SDS011;55469;48.934;12.050;2022-12-16T02:55:31;42.53;;;16.63;;
68479;SDS011;55469;48.934;12.050;2022-12-16T03:04:06;42.50;;;16.83;;
68479;SDS011;55469;48.934;12.050;2022-12-16T03:06:37;41.45;;;16.40;;
68479;SDS011;55469;48.934;12.050;2022-12-16T03:09:07;44.75;;;17.70;;
68479;SDS011;55469;48.934;12.050;2022-12-16T03:11:37;48.38;;;17.88;;
68479;SDS011;55469;48.934;12.050;2022-12-16T03:14:07;41.05;;;16.65;;
68479;SDS011;55469;48.934;12.050;2022-12-16T03:16:38;41.95;;;17.77;;
68479;SDS011;55469;48.934;12.050;2022-12-16T03:19:06;42.03;;;17.05;;
68479;SDS011;55469;48.934;12.050;2022-12-16T03:21:35;47.10;;;17.75;;
68479;SDS011;55469;48.934;12.050;2022-12-16T03:24:09;39.10;;;16.13;;
68479;SDS011;55469;48.934;12.050;2022-12-16T03:35:38;40.97;;;17.13;;
68479;SDS011;55469;48.934;12.050;2022-12-16T03:38:17;41.35;;;17.27;;
68479;SDS011;55469;48.934;12.050;2022-12-16T03:40:45;42.22;;;17.58;;
68479;SDS011;55469;48.934;12.050;2022-12-16T03:43:12;48.58;;;18.83;;
68479;SDS011;55469;48.934;12.050;2022-12-16T03:45:39;44.20;;;17.17;;
68479;SDS011;55469;48.934;12.050;2022-12-16T03:48:10;41.35;;;17.27;;
68479;SDS011;55469;48.934;12.050;2022-12-16T03:50:38;43.63;;;16.20;;
68479;SDS011;55469;48.934;12.050;2022-12-16T03:53:04;42.78;;;19.38;;
68479;SDS011;55469;48.934;12.050;2022-12-16T03:55:32;42.83;;;17.10;;
68479;SDS011;55469;48.934;12.050;2022-12-16T03:57:58;44.80;;;17.65;;
68479;SDS011;55469;48.934;12.050;2022-12-16T04:00:24;40.10;;;17.00;;
68479;SDS011;55469;48.934;12.050;2022-12-16T04:02:50;47.13;;;17.73;;
68479;SDS011;55469;48.934;12.050;2022-12-16T04:05:16;41.35;;;17.45;;
68479;SDS011;55469;48.934;12.050;2022-12-16T04:07:42;44.00;;;17.98;;
68479;SDS011;55469;48.934;12.050;2022-12-16T04:10:08;41.20;;;16.70;;
68479;SDS011;55469;48.934;12.050;2022-12-16T04:12:34;46.55;;;17.63;;
68479;SDS011;55469;48.934;12.050;2022-12-16T04:15:19;43.45;;;16.73;;
68479;SDS011;55469;48.934;12.050;2022-12-16T04:18:04;37.58;;;15.38;;
68479;SDS011;55469;48.934;12.050;2022-12-16T04:20:52;38.47;;;17.13;;
68479;SDS011;55469;48.934;12.050;2022-12-16T04:23:41;42.45;;;16.83;;
68479;SDS011;55469;48.934;12.050;2022-12-16T04:26:31;42.38;;;16.52;;
68479;SDS011;55469;48.934;12.050;2022-12-16T04:29:17;38.42;;;15.70;;
68479;SDS011;55469;48.934;12.050;2022-12-16T04:31:43;36.50;;;16.60;;
68479;SDS011;55469;48.934;12.050;2022-12-16T04:34:09;38.65;;;16.73;;
68479;SDS011;55469;48.934;12.050;2022-12-16T04:36:53;43.33;;;16.60;;
68479;SDS011;55469;48.934;12.050;2022-12-16T04:39:43;43.17;;;17.40;;
68479;SDS011;55469;48.934;12.050;2022-12-16T04:42:28;42.78;;;18.08;;
68479;SDS011;55469;48.934;12.050;2022-12-16T04:45:12;40.42;;;16.23;;
68479;SDS011;55469;48.934;12.050;2022-12-16T04:47:57;42.15;;;16.60;;
68479;SDS011;55469;48.934;12.050;2022-12-16T04:50:41;48.17;;;18.23;;
68479;SDS011;55469;48.934;12.050;2022-12-16T04:53:25;40.30;;;17.10;;
68479;SDS011;55469;48.934;12.050;2022-12-16T04:56:10;39.50;;;16.33;;
68479;SDS011;55469;48.934;12.050;2022-12-16T04:58:54;40.75;;;16.17;;
68479;SDS011;55469;48.934;12.050;2022-12-16T05:01:38;38.45;;;15.27;;
68479;SDS011;55469;48.934;12.050;2022-12-16T05:04:22;43.20;;;16.83;;
68479;SDS011;55469;48.934;12.050;2022-12-16T05:07:07;40.40;;;16.10;;
68479;SDS011;55469;48.934;12.050;2022-12-16T05:09:52;42.40;;;17.25;;
68479;SDS011;55469;48.934;12.050;2022-12-16T05:12:36;45.00;;;16.67;;
68479;SDS011;55469;48.934;12.050;2022-12-16T05:15:20;41.78;;;17.23;;
68479;SDS011;55469;48.934;12.050;2022-12-16T05:18:10;42.35;;;16.38;;
68479;SDS011;55469;48.934;12.050;2022-12-16T05:20:58;39.20;;;16.38;;
68479;SDS011;55469;48.934;12.050;2022-12-16T05:23:43;40.92;;;15.85;;
68479;SDS011;55469;48.934;12.050;2022-12-16T05:26:29;40.25;;;15.48;;
68479;SDS011;55469;48.934;12.050;2022-12-16T05:31:58;36.17;;;15.50;;
68479;SDS011;55469;48.934;12.050;2022-12-16T05:34:43;44.83;;;16.67;;
68479;SDS011;55469;48.934;12.050;2022-12-16T05:37:27;38.70;;;16.15;;
68479;SDS011;55469;48.934;12.050;2022-12-16T05:40:11;36.47;;;15.48;;
68479;SDS011;55469;48.934;12.050;2022-12-16T05:42:55;38.38;;;15.73;;
68479;SDS011;55469;48.934;12.050;2022-12-16T05:45:40;43.42;;;16.98;;
68479;SDS011;55469;48.934;12.050;2022-12-16T05:48:25;40.22;;;15.10;;
68479;SDS011;55469;48.934;12.050;2022-12-16T05:53:54;38.33;;;15.57;;
68479;SDS011;55469;48.934;12.050;2022-12-16T05:56:38;46.15;;;16.88;;
68479;SDS011;55469;48.934;12.050;2022-12-16T05:59:22;42.50;;;16.90;;
68479;SDS011;55469;48.934;12.050;2022-12-16T06:02:07;43.08;;;16.38;;
68479;SDS011;55469;48.934;12.050;2022-12-16T06:04:52;36.00;;;15.35;;
68479;SDS011;55469;48.934;12.050;2022-12-16T06:07:36;43.75;;;16.88;;
68479;SDS011;55469;48.934;12.050;2022-12-16T06:10:20;44.22;;;17.00;;
68479;SDS011;55469;48.934;12.050;2022-12-16T06:15:48;40.47;;;16.10;;
68479;SDS011;55469;48.934;12.050;2022-12-16T06:18:33;41.13;;;16.13;;
68479;SDS011;55469;48.934;12.050;2022-12-16T06:21:17;42.42;;;16.88;;
68479;SDS011;55469;48.934;12.050;2022-12-16T06:24:01;39.92;;;16.25;;
68479;SDS011;55469;48.934;12.050;2022-12-16T06:26:45;38.40;;;15.93;;
68479;SDS011;55469;48.934;12.050;2022-12-16T06:29:29;41.53;;;16.08;;
68479;SDS011;55469;48.934;12.050;2022-12-16T06:32:20;43.10;;;17.67;;
68479;SDS011;55469;48.934;12.050;2022-12-16T06:35:05;40.90;;;16.38;;
68479;SDS011;55469;48.934;12.050;2022-12-16T06:40:34;39.03;;;16.10;;
68479;SDS011;55469;48.934;12.050;2022-12-16T06:43:18;42.10;;;16.58;;
68479;SDS011;55469;48.934;12.050;2022-12-16T06:46:02;39.13;;;15.75;;
68479;SDS011;55469;48.934;12.050;2022-12-16T06:48:46;39.35;;;14.85;;
68479;SDS011;55469;48.934;12.050;2022-12-16T06:51:30;39.90;;;15.75;;
68479;SDS011;55469;48.934;12.050;2022-12-16T06:54:14;41.40;;;15.75;;
68479;SDS011;55469;48.934;12.050;2022-12-16T06:56:58;42.53;;;16.55;;
68479;SDS011;55469;48.934;12.050;2022-12-16T06:59:42;41.80;;;16.02;;
68479;SDS011;55469;48.934;12.050;2022-12-16T07:02:26;42.13;;;16.63;;
68479;SDS011;55469;48.934;12.050;2022-12-16T07:05:10;38.50;;;15.52;;
68479;SDS011;55469;48.934;12.050;2022-12-16T07:07:54;41.47;;;16.60;;
68479;SDS011;55469;48.934;12.050;2022-12-16T07:10:38;45.13;;;16.75;;
68479;SDS011;55469;48.934;12.050;2022-12-16T07:13:23;37.60;;;16.58;;
68479;SDS011;55469;48.934;12.050;2022-12-16T07:16:07;39.88;;;15.75;;
68479;SDS011;55469;48.934;12.050;2022-12-16T07:18:51;46.67;;;17.47;;
68479;SDS011;55469;48.934;12.050;2022-12-16T07:21:35;46.15;;;16.70;;
68479;SDS011;55469;48.934;12.050;2022-12-16T07:24:19;39.92;;;15.70;;
68479;SDS011;55469;48.934;12.050;2022-12-16T07:27:03;42.88;;;17.10;;
68479;SDS011;55469;48.934;12.050;2022-12-16T07:29:47;45.13;;;16.85;;
68479;SDS011;55469;48.934;12.050;2022-12-16T07:32:31;40.33;;;16.67;;
68479;SDS011;55469;48.934;12.050;2022-12-16T07:35:15;42.33;;;17.30;;
68479;SDS011;55469;48.934;12.050;2022-12-16T07:38:00;41.50;;;16.77;;
68479;SDS011;55469;48.934;12.050;2022-12-16T07:40:44;38.47;;;15.82;;
68479;SDS011;55469;48.934;12.050;2022-12-16T07:43:28;45.08;;;16.38;;
68479;SDS011;55469;48.934;12.050;2022-12-16T07:46:12;39.45;;;16.52;;
68479;SDS011;55469;48.934;12.050;2022-12-16T07:48:56;36.13;;;15.02;;
68479;SDS011;55469;48.934;12.050;2022-12-16T07:51:40;40.85;;;16.35;;
68479;SDS011;55469;48.934;12.050;2022-12-16T07:54:24;41.83;;;16.63;;
68479;SDS011;55469;48.934;12.050;2022-12-16T07:59:53;43.47;;;17.50;;
68479;SDS011;55469;48.934;12.050;2022-12-16T08:02:37;44.40;;;15.80;;
68479;SDS011;55469;48.934;12.050;2022-12-16T08:05:21;49.08;;;18.45;;
68479;SDS011;55469;48.934;12.050;2022-12-16T08:08:06;42.08;;;17.27;;
68479;SDS011;55469;48.934;12.050;2022-12-16T08:10:50;41.20;;;16.92;;
68479;SDS011;55469;48.934;12.050;2022-12-16T08:13:34;42.65;;;16.98;;
68479;SDS011;55469;48.934;12.050;2022-12-16T08:16:18;42.80;;;16.70;;
68479;SDS011;55469;48.934;12.050;2022-12-16T08:19:02;42.97;;;17.73;;
68479;SDS011;55469;48.934;12.050;2022-12-16T08:21:46;39.30;;;16.05;;
68479;SDS011;55469;48.934;12.050;2022-12-16T08:24:30;42.75;;;17.80;;
68479;SDS011;55469;48.934;12.050;2022-12-16T08:27:14;40.50;;;17.00;;
68479;SDS011;55469;48.934;12.050;2022-12-16T08:29:58;38.92;;;15.13;;
68479;SDS011;55469;48.934;12.050;2022-12-16T08:32:42;46.58;;;17.25;;
68479;SDS011;55469;48.934;12.050;2022-12-16T08:35:26;41.05;;;15.45;;
68479;SDS011;55469;48.934;12.050;2022-12-16T08:38:10;40.85;;;16.15;;
68479;SDS011;55469;48.934;12.050;2022-12-16T08:40:54;40.10;;;15.77;;
68479;SDS011;55469;48.934;12.050;2022-12-16T08:43:38;43.30;;;15.95;;
68479;SDS011;55469;48.934;12.050;2022-12-16T08:46:22;38.60;;;14.65;;
68479;SDS011;55469;48.934;12.050;2022-12-16T08:49:06;41.53;;;16.98;;
68479;SDS011;55469;48.934;12.050;2022-12-16T08:51:53;37.17;;;15.95;;
68479;SDS011;55469;48.934;12.050;2022-12-16T08:54:38;41.40;;;15.75;;
68479;SDS011;55469;48.934;12.050;2022-12-16T08:57:22;35.20;;;15.25;;
68479;SDS011;55469;48.934;12.050;2022-12-16T09:00:06;37.22;;;15.15;;
68479;SDS011;55469;48.934;12.050;2022-12-16T09:02:53;37.42;;;15.68;;
68479;SDS011;55469;48.934;12.050;2022-12-16T09:05:39;40.42;;;15.27;;
68479;SDS011;55469;48.934;12.050;2022-12-16T09:08:23;36.35;;;15.95;;
68479;SDS011;55469;48.934;12.050;2022-12-16T09:11:07;38.17;;;15.90;;
68479;SDS011;55469;48.934;12.050;2022-12-16T09:13:54;41.57;;;15.83;;
68479;SDS011;55469;48.934;12.050;2022-12-16T09:16:39;36.65;;;14.98;;
68479;SDS011;55469;48.934;12.050;2022-12-16T09:19:22;37.60;;;15.95;;
68479;SDS011;55469;48.934;12.050;2022-12-16T09:22:07;37.72;;;15.63;;
68479;SDS011;55469;48.934;12.050;2022-12-16T09:24:51;34.60;;;14.18;;
68479;SDS011;55469;48.934;12.050;2022-12-16T09:27:35;40.55;;;16.00;;
68479;SDS011;55469;48.934;12.050;2022-12-16T09:30:19;36.58;;;15.85;;
68479;SDS011;55469;48.934;12.050;2022-12-16T09:33:03;42.30;;;15.23;;
68479;SDS011;55469;48.934;12.050;2022-12-16T09:35:47;38.00;;;14.68;;
68479;SDS011;55469;48.934;12.050;2022-12-16T09:38:39;34.53;;;14.43;;
68479;SDS011;55469;48.934;12.050;2022-12-16T09:44:49;39.55;;;15.75;;
68479;SDS011;55469;48.934;12.050;2022-12-16T09:47:39;36.92;;;14.82;;
68479;SDS011;55469;48.934;12.050;2022-12-16T09:50:37;32.40;;;13.70;;
68479;SDS011;55469;48.934;12.050;2022-12-16T09:53:24;35.40;;;13.98;;
68479;SDS011;55469;48.934;12.050;2022-12-16T09:56:14;37.10;;;15.10;;
68479;SDS011;55469;48.934;12.050;2022-12-16T09:59:08;33.58;;;13.52;;
68479;SDS011;55469;48.934;12.050;2022-12-16T10:01:56;30.90;;;13.65;;
68479;SDS011;55469;48.934;12.050;2022-12-16T10:04:43;33.25;;;13.65;;
68479;SDS011;55469;48.934;12.050;2022-12-16T10:07:31;35.22;;;13.60;;
68479;SDS011;55469;48.934;12.050;2022-12-16T10:10:57;39.33;;;15.68;;
68479;SDS011;55469;48.934;12.050;2022-12-16T10:13:44;31.20;;;12.98;;
68479;SDS011;55469;48.934;12.050;2022-12-16T10:22:49;33.45;;;14.35;;
68479;SDS011;55469;48.934;12.050;2022-12-16T10:25:49;33.15;;;13.88;;
68479;SDS011;55469;48.934;12.050;2022-12-16T10:28:50;33.20;;;13.57;;
68479;SDS011;55469;48.934;12.050;2022-12-16T10:32:04;35.13;;;14.25;;
68479;SDS011;55469;48.934;12.050;2022-12-16T10:38:13;31.30;;;13.20;;
68479;SDS011;55469;48.934;12.050;2022-12-16T10:41:05;30.60;;;12.38;;
68479;SDS011;55469;48.934;12.050;2022-12-16T10:43:50;32.28;;;12.88;;
68479;SDS011;55469;48.934;12.050;2022-12-16T10:46:36;30.60;;;13.25;;
68479;SDS011;55469;48.934;12.050;2022-12-16T10:49:21;33.95;;;13.57;;
68479;SDS011;55469;48.934;12.050;2022-12-16T10:52:05;32.85;;;13.68;;
68479;SDS011;55469;48.934;12.050;2022-12-16T10:57:57;28.55;;;12.88;;
68479;SDS011;55469;48.934;12.050;2022-12-16T11:00:50;31.92;;;13.07;;
68479;SDS011;55469;48.934;12.050;2022-12-16T11:03:37;32.65;;;13.68;;
68479;SDS011;55469;48.934;12.050;2022-12-16T11:06:24;34.28;;;13.52;;
68479;SDS011;55469;48.934;12.050;2022-12-16T11:09:21;32.17;;;13.40;;
68479;SDS011;55469;48.934;12.050;2022-12-16T11:14:56;32.85;;;13.10;;
68479;SDS011;55469;48.934;12.050;2022-12-16T11:17:40;27.80;;;12.82;;
68479;SDS011;55469;48.934;12.050;2022-12-16T11:21:01;32.85;;;12.85;;
68479;SDS011;55469;48.934;12.050;2022-12-16T11:26:57;28.95;;;12.52;;
68479;SDS011;55469;48.934;12.050;2022-12-16T11:29:48;31.98;;;13.27;;
68479;SDS011;55469;48.934;12.050;2022-12-16T11:32:39;30.65;;;12.90;;
68479;SDS011;55469;48.934;12.050;2022-12-16T11:35:33;33.75;;;13.65;;
68479;SDS011;55469;48.934;12.050;2022-12-16T11:38:23;32.15;;;13.15;;
68479;SDS011;55469;48.934;12.050;2022-12-16T11:41:32;28.23;;;12.52;;
68479;SDS011;55469;48.934;12.050;2022-12-16T11:44:27;29.92;;;12.60;;
68479;SDS011;55469;48.934;12.050;2022-12-16T11:50:19;30.83;;;12.70;;
68479;SDS011;55469;48.934;12.050;2022-12-16T11:53:06;33.30;;;13.32;;
68479;SDS011;55469;48.934;12.050;2022-12-16T11:56:25;28.63;;;12.68;;
68479;SDS011;55469;48.934;12.050;2022-12-16T11:59:25;28.17;;;12.27;;
68479;SDS011;55469;48.934;12.050;2022-12-16T12:02:54;32.38;;;13.43;;
68479;SDS011;55469;48.934;12.050;2022-12-16T12:09:14;28.73;;;12.63;;
68479;SDS011;55469;48.934;12.050;2022-12-16T12:12:10;29.52;;;12.38;;
68479;SDS011;55469;48.934;12.050;2022-12-16T12:24:20;28.55;;;12.10;;
68479;SDS011;55469;48.934;12.050;2022-12-16T12:30:15;29.85;;;11.57;;
68479;SDS011;55469;48.934;12.050;2022-12-16T12:33:17;28.83;;;12.20;;
68479;SDS011;55469;48.934;12.050;2022-12-16T12:36:33;28.45;;;12.20;;
68479;SDS011;55469;48.934;12.050;2022-12-16T12:45:43;26.92;;;11.18;;
68479;SDS011;55469;48.934;12.050;2022-12-16T12:48:59;26.42;;;11.13;;
68479;SDS011;55469;48.934;12.050;2022-12-16T12:52:10;26.40;;;11.40;;
68479;SDS011;55469;48.934;12.050;2022-12-16T12:55:36;26.00;;;11.57;;
68479;SDS011;55469;48.934;12.050;2022-12-16T12:58:27;30.25;;;12.32;;
68479;SDS011;55469;48.934;12.050;2022-12-16T13:01:14;28.95;;;11.32;;
68479;SDS011;55469;48.934;12.050;2022-12-16T13:04:09;26.08;;;11.48;;
68479;SDS011;55469;48.934;12.050;2022-12-16T13:06:58;26.13;;;11.40;;
68479;SDS011;55469;48.934;12.050;2022-12-16T13:09:43;26.83;;;11.90;;
68479;SDS011;55469;48.934;12.050;2022-12-16T13:15:37;27.65;;;11.75;;
68479;SDS011;55469;48.934;12.050;2022-12-16T13:27:12;27.00;;;11.75;;
68479;SDS011;55469;48.934;12.050;2022-12-16T13:30:21;23.30;;;10.27;;
68479;SDS011;55469;48.934;12.050;2022-12-16T13:36:14;23.58;;;9.63;;
68479;SDS011;55469;48.934;12.050;2022-12-16T13:39:06;24.38;;;11.27;;
68479;SDS011;55469;48.934;12.050;2022-12-16T13:45:37;25.13;;;11.05;;
68479;SDS011;55469;48.934;12.050;2022-12-16T13:48:28;25.67;;;11.07;;
68479;SDS011;55469;48.934;12.050;2022-12-16T13:54:39;20.15;;;9.93;;
68479;SDS011;55469;48.934;12.050;2022-12-16T13:57:29;23.30;;;10.52;;
68479;SDS011;55469;48.934;12.050;2022-12-16T14:00:21;22.95;;;9.77;;
68479;SDS011;55469;48.934;12.050;2022-12-16T14:03:26;24.75;;;10.18;;
68479;SDS011;55469;48.934;12.050;2022-12-16T14:12:22;18.77;;;8.50;;
68479;SDS011;55469;48.934;12.050;2022-12-16T14:21:47;18.23;;;7.70;;
68479;SDS011;55469;48.934;12.050;2022-12-16T14:25:25;20.13;;;8.68;;
68479;SDS011;55469;48.934;12.050;2022-12-16T14:28:18;22.23;;;10.25;;
68479;SDS011;55469;48.934;12.050;2022-12-16T14:31:28;17.73;;;8.20;;
68479;SDS011;55469;48.934;12.050;2022-12-16T14:34:30;22.15;;;9.20;;
68479;SDS011;55469;48.934;12.050;2022-12-16T14:37:18;20.98;;;8.30;;
68479;SDS011;55469;48.934;12.050;2022-12-16T14:43:19;18.83;;;8.68;;
68479;SDS011;55469;48.934;12.050;2022-12-16T14:49:20;18.77;;;8.85;;
68479;SDS011;55469;48.934;12.050;2022-12-16T14:55:16;19.05;;;7.95;;
68479;SDS011;55469;48.934;12.050;2022-12-16T14:58:10;17.38;;;7.63;;
68479;SDS011;55469;48.934;12.050;2022-12-16T15:01:04;17.38;;;7.82;;
68479;SDS011;55469;48.934;12.050;2022-12-16T15:03:55;17.35;;;8.23;;
68479;SDS011;55469;48.934;12.050;2022-12-16T15:06:40;18.20;;;8.27;;
68479;SDS011;55469;48.934;12.050;2022-12-16T15:09:33;16.00;;;8.07;;
68479;SDS011;55469;48.934;12.050;2022-12-16T15:12:25;17.83;;;8.40;;
68479;SDS011;55469;48.934;12.050;2022-12-16T15:15:15;21.58;;;9.23;;
68479;SDS011;55469;48.934;12.050;2022-12-16T15:18:17;16.48;;;7.60;;
68479;SDS011;55469;48.934;12.050;2022-12-16T15:21:05;18.50;;;7.90;;
68479;SDS011;55469;48.934;12.050;2022-12-16T15:23:50;19.13;;;7.72;;
68479;SDS011;55469;48.934;12.050;2022-12-16T15:26:35;18.02;;;7.53;;
68479;SDS011;55469;48.934;12.050;2022-12-16T15:29:31;17.63;;;8.00;;
68479;SDS011;55469;48.934;12.050;2022-12-16T15:38:25;17.70;;;8.32;;
68479;SDS011;55469;48.934;12.050;2022-12-16T15:41:18;18.00;;;8.00;;
68479;SDS011;55469;48.934;12.050;2022-12-16T15:44:18;16.08;;;7.45;;
68479;SDS011;55469;48.934;12.050;2022-12-16T15:47:15;17.23;;;7.30;;
68479;SDS011;55469;48.934;12.050;2022-12-16T15:50:11;18.30;;;7.63;;
68479;SDS011;55469;48.934;12.050;2022-12-16T15:56:20;15.50;;;7.43;;
68479;SDS011;55469;48.934;12.050;2022-12-16T15:59:28;17.02;;;7.80;;
68479;SDS011;55469;48.934;12.050;2022-12-16T16:02:17;15.82;;;7.53;;
68479;SDS011;55469;48.934;12.050;2022-12-16T16:05:13;15.32;;;7.15;;
68479;SDS011;55469;48.934;12.050;2022-12-16T16:08:01;16.27;;;7.28;;
68479;SDS011;55469;48.934;12.050;2022-12-16T16:10:46;16.10;;;7.30;;
68479;SDS011;55469;48.934;12.050;2022-12-16T16:13:30;18.20;;;7.75;;
68479;SDS011;55469;48.934;12.050;2022-12-16T16:16:14;18.83;;;7.93;;
68479;SDS011;55469;48.934;12.050;2022-12-16T16:18:59;17.85;;;7.75;;
68479;SDS011;55469;48.934;12.050;2022-12-16T16:24:29;15.43;;;7.57;;
68479;SDS011;55469;48.934;12.050;2022-12-16T16:27:13;19.15;;;8.35;;
68479;SDS011;55469;48.934;12.050;2022-12-16T16:29:58;16.15;;;6.93;;
68479;SDS011;55469;48.934;12.050;2022-12-16T16:32:44;17.05;;;7.47;;
68479;SDS011;55469;48.934;12.050;2022-12-16T16:35:29;16.38;;;7.57;;
68479;SDS011;55469;48.934;12.050;2022-12-16T16:38:15;17.77;;;7.90;;
68479;SDS011;55469;48.934;12.050;2022-12-16T16:41:00;17.23;;;7.88;;
68479;SDS011;55469;48.934;12.050;2022-12-16T16:43:44;15.73;;;7.43;;
68479;SDS011;55469;48.934;12.050;2022-12-16T16:49:16;16.15;;;7.15;;
68479;SDS011;55469;48.934;12.050;2022-12-16T16:52:12;16.58;;;7.13;;
68479;SDS011;55469;48.934;12.050;2022-12-16T16:55:03;15.55;;;6.88;;
68479;SDS011;55469;48.934;12.050;2022-12-16T16:57:48;14.88;;;6.60;;
68479;SDS011;55469;48.934;12.050;2022-12-16T17:00:32;16.27;;;7.17;;
68479;SDS011;55469;48.934;12.050;2022-12-16T17:03:16;14.30;;;6.70;;
68479;SDS011;55469;48.934;12.050;2022-12-16T17:06:00;17.10;;;7.75;;
68479;SDS011;55469;48.934;12.050;2022-12-16T17:08:45;13.93;;;6.72;;
68479;SDS011;55469;48.934;12.050;2022-12-16T17:11:29;14.52;;;7.15;;
68479;SDS011;55469;48.934;12.050;2022-12-16T17:14:16;15.15;;;7.05;;
68479;SDS011;55469;48.934;12.050;2022-12-16T17:17:04;13.82;;;6.95;;
68479;SDS011;55469;48.934;12.050;2022-12-16T17:19:49;16.45;;;7.32;;
68479;SDS011;55469;48.934;12.050;2022-12-16T17:22:33;16.40;;;7.30;;
68479;SDS011;55469;48.934;12.050;2022-12-16T17:25:18;16.00;;;7.13;;
68479;SDS011;55469;48.934;12.050;2022-12-16T17:28:03;17.27;;;8.48;;
68479;SDS011;55469;48.934;12.050;2022-12-16T17:31:05;13.80;;;7.22;;
68479;SDS011;55469;48.934;12.050;2022-12-16T17:33:50;14.75;;;7.63;;
68479;SDS011;55469;48.934;12.050;2022-12-16T17:36:34;19.15;;;8.05;;
68479;SDS011;55469;48.934;12.050;2022-12-16T17:39:18;18.00;;;7.85;;
68479;SDS011;55469;48.934;12.050;2022-12-16T17:42:02;17.92;;;7.80;;
68479;SDS011;55469;48.934;12.050;2022-12-16T17:44:46;14.43;;;7.03;;
68479;SDS011;55469;48.934;12.050;2022-12-16T17:47:30;17.80;;;8.23;;
68479;SDS011;55469;48.934;12.050;2022-12-16T17:50:14;17.50;;;7.67;;
68479;SDS011;55469;48.934;12.050;2022-12-16T17:52:59;15.52;;;7.60;;
68479;SDS011;55469;48.934;12.050;2022-12-16T17:55:43;14.97;;;7.47;;
68479;SDS011;55469;48.934;12.050;2022-12-16T17:58:34;16.65;;;8.00;;
68479;SDS011;55469;48.934;12.050;2022-12-16T18:01:20;18.52;;;8.10;;
68479;SDS011;55469;48.934;12.050;2022-12-16T18:04:05;15.30;;;7.47;;
68479;SDS011;55469;48.934;12.050;2022-12-16T18:06:49;13.80;;;6.93;;
68479;SDS011;55469;48.934;12.050;2022-12-16T18:09:34;17.20;;;7.53;;
68479;SDS011;55469;48.934;12.050;2022-12-16T18:15:03;13.13;;;7.20;;
68479;SDS011;55469;48.934;12.050;2022-12-16T18:17:47;17.58;;;7.88;;
68479;SDS011;55469;48.934;12.050;2022-12-16T18:20:32;20.65;;;9.35;;
68479;SDS011;55469;48.934;12.050;2022-12-16T18:23:16;19.50;;;8.77;;
68479;SDS011;55469;48.934;12.050;2022-12-16T18:26:01;17.00;;;8.50;;